Time;durP1;ratioP1;P1;durP2;ratioP2;P2;SDS_P1;SDS_P2;PMS_P1;PMS_P2;Temp;Humidity;BMP_temperature;BMP_pressure;BME280_temperature;BME280_humidity;BME280_pressure;Samples;Min_cycle;Max_cycle;Signal;HPM_P1;HPM_P2
2023/04/18 00:02:16;;;;;;;;;34.67;23.67;;;;;;;;4997228;28;45526;-78
2023/04/18 00:04:46;;;;;;;;;34.25;22.75;;;;;;;;4997111;28;45466;-79
2023/04/18 00:07:16;;;;;;;;;31.50;24.25;;;;;;;;5016887;28;46442;-78
2023/04/18 00:09:41;;;;;;;;;26.25;22.25;;;;;;;;5016447;28;45357;-79
2023/04/18 00:12:06;;;;;;;;;32.00;25.75;;;;;;;;5016690;28;45482;-80
2023/04/18 00:14:34;;;;;;;;;39.67;26.00;;;;;;;;5016923;28;45325;-79
2023/04/18 00:17:01;;;;;;;;;42.25;23.25;;;;;;;;5015657;28;46355;-79
2023/04/18 00:19:26;;;;;;;;;37.75;26.25;;;;;;;;5016405;28;46053;-80
2023/04/18 00:21:52;;;;;;;;;35.00;25.00;;;;;;;;5016267;28;45381;-80
2023/04/18 00:24:17;;;;;;;;;31.75;23.00;;;;;;;;5016106;28;45329;-80
2023/04/18 00:26:42;;;;;;;;;43.33;27.67;;;;;;;;5000186;28;47270;-81
2023/04/18 00:29:07;;;;;;;;;30.67;22.33;;;;;;;;4996537;28;45299;-80
2023/04/18 00:31:33;;;;;;;;;39.33;22.00;;;;;;;;4994808;28;45301;-80
2023/04/18 00:33:58;;;;;;;;;33.33;23.00;;;;;;;;4996864;28;45393;-80
2023/04/18 00:36:23;;;;;;;;;47.00;26.00;;;;;;;;5009003;28;45489;-80
2023/04/18 00:38:48;;;;;;;;;32.33;22.67;;;;;;;;5015917;28;45487;-79
2023/04/18 00:41:14;;;;;;;;;40.00;28.00;;;;;;;;5016500;28;45277;-79
2023/04/18 00:43:39;;;;;;;;;26.50;24.25;;;;;;;;5014329;28;45381;-79
2023/04/18 00:46:05;;;;;;;;;35.00;26.00;;;;;;;;5005354;28;46214;-80
2023/04/18 00:48:30;;;;;;;;;32.50;25.25;;;;;;;;4996164;28;45378;-80
2023/04/18 00:50:56;;;;;;;;;26.25;16.50;;;;;;;;4996421;28;45396;-80
2023/04/18 00:53:21;;;;;;;;;35.75;23.75;;;;;;;;4995862;28;45369;-80
2023/04/18 00:55:46;;;;;;;;;35.50;24.25;;;;;;;;5003015;28;46153;-81
2023/04/18 00:58:12;;;;;;;;;32.75;25.00;;;;;;;;5015807;28;45385;-81
2023/04/18 01:00:38;;;;;;;;;38.50;29.00;;;;;;;;5016387;28;45417;-80
2023/04/18 01:03:03;;;;;;;;;33.25;21.25;;;;;;;;5016034;28;45431;-80
2023/04/18 01:05:28;;;;;;;;;25.67;21.00;;;;;;;;5010905;28;45522;-80
2023/04/18 01:07:59;;;;;;;;;23.50;16.00;;;;;;;;4995793;28;45420;-80
2023/04/18 01:10:25;;;;;;;;;30.75;22.25;;;;;;;;4995846;28;45368;-80
2023/04/18 01:13:08;;;;;;;;;34.75;27.50;;;;;;;;5012740;28;45533;-81
2023/04/18 01:15:33;;;;;;;;;35.00;21.00;;;;;;;;5015149;28;46812;-80
2023/04/18 01:17:58;;;;;;;;;32.33;22.00;;;;;;;;5014079;28;46787;-80
2023/04/18 01:20:25;;;;;;;;;34.50;21.00;;;;;;;;5015896;28;46063;-80
2023/04/18 01:22:50;;;;;;;;;35.50;26.50;;;;;;;;5015227;28;45366;-80
2023/04/18 01:25:15;;;;;;;;;42.25;26.00;;;;;;;;5012086;28;46856;-80
2023/04/18 01:27:41;;;;;;;;;35.00;25.33;;;;;;;;4995888;28;45313;-80
2023/04/18 01:30:06;;;;;;;;;35.33;25.67;;;;;;;;4995487;28;45361;-80
2023/04/18 01:32:32;;;;;;;;;30.50;24.50;;;;;;;;4995892;28;45345;-80
2023/04/18 01:34:57;;;;;;;;;34.67;29.67;;;;;;;;4994426;28;48331;-79
2023/04/18 01:37:22;;;;;;;;;38.33;27.33;;;;;;;;5014394;28;45490;-80
2023/04/18 01:39:47;;;;;;;;;34.67;24.67;;;;;;;;5015539;28;45633;-80
2023/04/18 01:42:12;;;;;;;;;34.33;26.33;;;;;;;;5015529;28;45281;-80
2023/04/18 01:44:37;;;;;;;;;35.33;26.33;;;;;;;;5015447;28;46554;-80
2023/04/18 01:47:03;;;;;;;;;30.33;25.67;;;;;;;;4997601;28;45484;-81
2023/04/18 01:49:28;;;;;;;;;34.33;28.33;;;;;;;;4995877;28;45277;-81
2023/04/18 01:51:53;;;;;;;;;31.67;26.00;;;;;;;;4995358;28;45380;-80
2023/04/18 01:54:18;;;;;;;;;38.33;28.33;;;;;;;;4995414;28;45794;-81
2023/04/18 01:56:44;;;;;;;;;34.75;23.50;;;;;;;;5011495;28;45359;-80
2023/04/18 01:59:09;;;;;;;;;35.67;27.00;;;;;;;;5017762;28;45269;-80
2023/04/18 02:01:34;;;;;;;;;35.00;26.67;;;;;;;;5018955;28;45507;-80
2023/04/18 02:03:59;;;;;;;;;31.33;27.67;;;;;;;;5018855;28;46278;-81
2023/04/18 02:06:25;;;;;;;;;25.67;21.67;;;;;;;;5007500;28;45360;-81
2023/04/18 02:08:50;;;;;;;;;27.50;23.25;;;;;;;;4998168;28;45475;-80
2023/04/18 02:11:15;;;;;;;;;32.67;29.00;;;;;;;;5001213;28;45239;-80
2023/04/18 02:13:40;;;;;;;;;38.33;28.33;;;;;;;;5017944;28;45640;-79
2023/04/18 02:16:10;;;;;;;;;36.00;23.33;;;;;;;;5017624;28;45376;-80
2023/04/18 02:18:35;;;;;;;;;35.00;26.00;;;;;;;;5018585;28;45383;-80
2023/04/18 02:21:01;;;;;;;;;33.00;23.75;;;;;;;;5017551;28;45741;-80
2023/04/18 02:23:26;;;;;;;;;38.33;24.00;;;;;;;;5016535;28;47231;-79
2023/04/18 02:25:52;;;;;;;;;27.33;22.67;;;;;;;;5012318;28;45483;-80
2023/04/18 02:28:17;;;;;;;;;30.50;26.50;;;;;;;;4998626;28;45434;-80
2023/04/18 02:30:42;;;;;;;;;35.67;25.00;;;;;;;;4998675;28;45620;-80
2023/04/18 02:33:07;;;;;;;;;31.00;23.33;;;;;;;;4998570;28;46190;-81
2023/04/18 02:35:34;;;;;;;;;24.00;16.33;;;;;;;;4998594;28;45526;-80
2023/04/18 02:37:59;;;;;;;;;27.50;23.75;;;;;;;;4998894;28;45361;-80
2023/04/18 02:40:24;;;;;;;;;28.25;21.50;;;;;;;;4998635;28;45384;-80
2023/04/18 02:42:49;;;;;;;;;38.00;24.00;;;;;;;;4998652;28;46400;-80
2023/04/18 02:45:15;;;;;;;;;35.67;29.33;;;;;;;;4998506;28;45398;-80
2023/04/18 02:47:40;;;;;;;;;34.00;25.67;;;;;;;;4997926;28;45353;-80
2023/04/18 02:50:06;;;;;;;;;34.75;26.50;;;;;;;;4998157;28;45385;-80
2023/04/18 02:52:31;;;;;;;;;28.25;25.75;;;;;;;;4998024;28;46590;-79
2023/04/18 02:54:56;;;;;;;;;31.67;22.00;;;;;;;;4998422;28;45499;-79
2023/04/18 02:57:21;;;;;;;;;27.33;22.33;;;;;;;;5013954;28;45346;-80
2023/04/18 02:59:46;;;;;;;;;35.33;25.33;;;;;;;;5017390;28;45466;-80
2023/04/18 03:02:12;;;;;;;;;34.33;27.33;;;;;;;;5017710;28;45521;-80
2023/04/18 03:04:37;;;;;;;;;37.33;24.67;;;;;;;;5017386;28;45395;-80
2023/04/18 03:07:02;;;;;;;;;30.33;21.33;;;;;;;;5004895;28;45535;-79
2023/04/18 03:09:27;;;;;;;;;28.67;20.67;;;;;;;;4996971;28;45676;-79
2023/04/18 03:11:52;;;;;;;;;36.00;28.00;;;;;;;;5005489;28;46446;-79
2023/04/18 03:14:17;;;;;;;;;30.67;22.33;;;;;;;;5016949;28;45404;-79
2023/04/18 03:16:43;;;;;;;;;28.00;22.75;;;;;;;;5016419;28;45563;-79
2023/04/18 03:19:09;;;;;;;;;28.25;23.50;;;;;;;;5017114;28;45317;-79
2023/04/18 03:21:34;;;;;;;;;35.25;24.00;;;;;;;;5017452;28;47082;-81
2023/04/18 03:23:59;;;;;;;;;23.33;23.00;;;;;;;;5016302;28;45441;-80
2023/04/18 03:26:25;;;;;;;;;45.00;29.00;;;;;;;;5016852;28;45584;-80
2023/04/18 03:28:50;;;;;;;;;33.00;28.00;;;;;;;;5017502;28;45525;-80
2023/04/18 03:31:15;;;;;;;;;38.00;28.00;;;;;;;;5017233;28;45486;-82
2023/04/18 03:33:44;;;;;;;;;50.00;33.33;;;;;;;;5017004;28;45380;-80
2023/04/18 03:36:16;;;;;;;;;33.25;25.25;;;;;;;;5013954;28;45281;-82
2023/04/18 03:38:41;;;;;;;;;37.25;25.50;;;;;;;;4997460;28;45576;-80
2023/04/18 03:41:07;;;;;;;;;17.67;9.00;;;;;;;;4997553;28;45442;-80
2023/04/18 03:43:32;;;;;;;;;43.33;28.00;;;;;;;;4997390;28;45510;-79
2023/04/18 03:45:57;;;;;;;;;36.33;22.67;;;;;;;;4996855;28;45439;-79
2023/04/18 03:48:22;;;;;;;;;40.75;27.50;;;;;;;;5017364;28;45418;-79
2023/04/18 03:50:48;;;;;;;;;45.75;30.75;;;;;;;;5016933;28;46504;-79
2023/04/18 03:53:13;;;;;;;;;33.00;24.50;;;;;;;;5016910;28;45535;-79
2023/04/18 03:55:40;;;;;;;;;43.33;24.33;;;;;;;;5017346;28;45344;-79
2023/04/18 03:58:05;;;;;;;;;39.00;31.25;;;;;;;;4998077;28;45446;-79
2023/04/18 04:00:30;;;;;;;;;33.33;24.33;;;;;;;;4996759;28;46693;-78
2023/04/18 04:02:55;;;;;;;;;36.00;23.33;;;;;;;;4996990;28;45522;-78
2023/04/18 04:05:21;;;;;;;;;38.33;29.33;;;;;;;;4997111;28;45348;-79
2023/04/18 04:07:46;;;;;;;;;41.67;24.00;;;;;;;;5012454;28;45501;-79
2023/04/18 04:10:11;;;;;;;;;41.25;31.00;;;;;;;;5016386;28;46243;-80
2023/04/18 04:12:36;;;;;;;;;39.33;26.33;;;;;;;;5016746;28;45424;-80
2023/04/18 04:15:02;;;;;;;;;38.67;25.33;;;;;;;;5016586;28;45426;-81
2023/04/18 04:17:27;;;;;;;;;34.50;26.75;;;;;;;;5015259;28;45612;-81
2023/04/18 04:19:52;;;;;;;;;27.00;22.00;;;;;;;;5014856;28;47251;-78
2023/04/18 04:22:17;;;;;;;;;40.00;27.67;;;;;;;;5016752;28;45577;-79
2023/04/18 04:24:43;;;;;;;;;37.00;25.00;;;;;;;;5016897;28;45221;-79
2023/04/18 04:27:09;;;;;;;;;34.00;23.00;;;;;;;;5006018;28;45308;-78
2023/04/18 04:29:34;;;;;;;;;30.00;26.75;;;;;;;;4996307;28;45530;-80
2023/04/18 04:32:00;;;;;;;;;28.75;24.00;;;;;;;;4995366;28;45407;-79
2023/04/18 04:34:25;;;;;;;;;44.75;27.00;;;;;;;;4996830;28;45372;-80
2023/04/18 04:36:52;;;;;;;;;37.50;28.75;;;;;;;;5004083;28;45437;-80
2023/04/18 04:39:18;;;;;;;;;32.00;25.00;;;;;;;;5015099;28;47195;-80
2023/04/18 04:41:43;;;;;;;;;44.67;29.33;;;;;;;;5016557;28;45331;-79
2023/04/18 04:44:08;;;;;;;;;40.00;26.67;;;;;;;;5002127;28;45309;-80
2023/04/18 04:46:34;;;;;;;;;41.75;27.25;;;;;;;;4996802;28;45436;-79
2023/04/18 04:48:59;;;;;;;;;38.25;24.00;;;;;;;;4996489;28;46938;-80
2023/04/18 04:51:25;;;;;;;;;36.75;26.50;;;;;;;;4996605;28;45422;-79
2023/04/18 04:53:50;;;;;;;;;38.00;23.00;;;;;;;;5007224;28;45400;-79
2023/04/18 04:56:15;;;;;;;;;34.75;23.00;;;;;;;;5016353;28;45436;-80
2023/04/18 04:58:41;;;;;;;;;37.50;26.25;;;;;;;;5014296;28;46975;-80
2023/04/18 05:01:07;;;;;;;;;35.67;27.33;;;;;;;;5016234;28;45230;-79
2023/04/18 05:03:33;;;;;;;;;28.00;22.25;;;;;;;;5007849;28;45467;-79
2023/04/18 05:05:58;;;;;;;;;39.50;26.50;;;;;;;;4996249;28;45330;-80
2023/04/18 05:08:24;;;;;;;;;32.00;22.25;;;;;;;;4995911;28;45604;-79
2023/04/18 05:10:49;;;;;;;;;40.67;28.00;;;;;;;;4996196;28;45353;-79
2023/04/18 05:13:15;;;;;;;;;37.75;26.25;;;;;;;;4996236;28;45995;-80
2023/04/18 05:15:40;;;;;;;;;39.33;26.67;;;;;;;;4994912;28;45432;-80
2023/04/18 05:18:05;;;;;;;;;47.67;31.67;;;;;;;;4994675;28;48102;-80
2023/04/18 05:20:31;;;;;;;;;40.50;28.00;;;;;;;;4996054;28;45763;-80
2023/04/18 05:22:56;;;;;;;;;33.67;29.00;;;;;;;;4998719;28;45580;-80
2023/04/18 05:25:21;;;;;;;;;35.00;26.67;;;;;;;;5015836;28;45440;-80
2023/04/18 05:27:46;;;;;;;;;35.00;28.00;;;;;;;;5015284;28;47383;-80
2023/04/18 05:30:12;;;;;;;;;48.50;29.75;;;;;;;;5013991;28;46367;-80
2023/04/18 05:32:38;;;;;;;;;41.33;27.67;;;;;;;;5015566;28;45380;-80
2023/04/18 05:35:04;;;;;;;;;43.00;28.00;;;;;;;;4994748;28;45523;-80
2023/04/18 05:37:29;;;;;;;;;35.00;24.00;;;;;;;;4995826;28;45569;-80
2023/04/18 05:39:54;;;;;;;;;24.33;22.00;;;;;;;;4995924;28;45406;-79
2023/04/18 05:42:20;;;;;;;;;25.50;18.75;;;;;;;;5001769;28;45487;-80
2023/04/18 05:44:45;;;;;;;;;37.00;25.67;;;;;;;;5015391;28;45673;-80
2023/04/18 05:47:10;;;;;;;;;39.67;27.00;;;;;;;;5015144;28;46564;-80
2023/04/18 05:49:35;;;;;;;;;31.67;26.33;;;;;;;;5014263;28;45485;-80
2023/04/18 05:52:00;;;;;;;;;34.33;23.00;;;;;;;;4999741;28;45415;-81
2023/04/18 05:54:26;;;;;;;;;33.00;25.67;;;;;;;;5015071;28;45367;-80
2023/04/18 05:56:51;;;;;;;;;38.25;27.75;;;;;;;;5010369;28;47107;-79
2023/04/18 05:59:17;;;;;;;;;40.25;30.75;;;;;;;;5004020;28;45652;-78
2023/04/18 06:01:42;;;;;;;;;32.67;29.00;;;;;;;;5009997;28;45328;-79
2023/04/18 06:04:07;;;;;;;;;35.75;27.00;;;;;;;;4999046;28;45654;-79
2023/04/18 06:06:33;;;;;;;;;37.25;25.00;;;;;;;;5013882;28;45432;-78
2023/04/18 06:08:58;;;;;;;;;29.00;28.50;;;;;;;;5014924;28;45475;-79
2023/04/18 06:11:24;;;;;;;;;35.00;27.25;;;;;;;;5014743;28;45343;-79
2023/04/18 06:13:49;;;;;;;;;38.25;30.75;;;;;;;;5014823;28;45352;-79
2023/04/18 06:16:14;;;;;;;;;43.33;27.67;;;;;;;;5014804;28;45509;-79
2023/04/18 06:18:40;;;;;;;;;28.50;23.50;;;;;;;;5015084;28;45226;-79
2023/04/18 06:21:05;;;;;;;;;20.67;20.67;;;;;;;;5015311;28;45414;-79
2023/04/18 06:23:30;;;;;;;;;35.25;27.00;;;;;;;;5014907;28;45486;-79
2023/04/18 06:25:56;;;;;;;;;30.00;28.00;;;;;;;;5014746;28;46308;-79
2023/04/18 06:28:21;;;;;;;;;30.25;23.75;;;;;;;;5014762;28;45339;-79
2023/04/18 06:30:46;;;;;;;;;41.33;30.67;;;;;;;;5015081;28;45420;-79
2023/04/18 06:33:11;;;;;;;;;35.33;29.67;;;;;;;;5015109;28;45605;-79
2023/04/18 06:35:36;;;;;;;;;37.00;28.00;;;;;;;;5014991;28;46446;-79
2023/04/18 06:38:02;;;;;;;;;35.67;20.67;;;;;;;;5014954;28;45361;-79
2023/04/18 06:40:27;;;;;;;;;35.33;27.67;;;;;;;;5014821;28;45369;-79
2023/04/18 06:42:52;;;;;;;;;46.25;28.50;;;;;;;;5017728;28;45292;-79
2023/04/18 06:45:17;;;;;;;;;32.00;22.75;;;;;;;;5016779;28;46148;-79
2023/04/18 06:47:43;;;;;;;;;39.67;28.67;;;;;;;;5018396;28;45403;-79
2023/04/18 06:50:08;;;;;;;;;33.00;23.25;;;;;;;;5017062;28;45301;-79
2023/04/18 06:52:39;;;;;;;;;42.25;29.75;;;;;;;;5018085;28;45557;-79
2023/04/18 06:55:04;;;;;;;;;30.00;17.25;;;;;;;;5017700;28;46343;-79
2023/04/18 06:57:29;;;;;;;;;37.50;29.00;;;;;;;;5017997;28;45304;-79
2023/04/18 06:59:55;;;;;;;;;34.67;25.00;;;;;;;;5018445;28;45338;-79
2023/04/18 07:02:20;;;;;;;;;33.67;26.67;;;;;;;;5018063;28;45472;-79
2023/04/18 07:04:45;;;;;;;;;40.33;30.00;;;;;;;;5017859;28;46081;-79
2023/04/18 07:07:10;;;;;;;;;26.50;25.50;;;;;;;;5017850;28;45376;-79
2023/04/18 07:09:35;;;;;;;;;33.00;22.67;;;;;;;;5017862;28;45609;-79
2023/04/18 07:12:01;;;;;;;;;33.33;20.33;;;;;;;;5017824;28;45422;-79
2023/04/18 07:14:27;;;;;;;;;35.33;27.67;;;;;;;;5017756;28;45410;-79
2023/04/18 07:16:52;;;;;;;;;31.50;25.50;;;;;;;;5017652;28;45881;-79
2023/04/18 07:19:17;;;;;;;;;33.67;25.67;;;;;;;;5018004;28;45475;-79
2023/04/18 07:21:44;;;;;;;;;38.67;27.67;;;;;;;;5017852;28;45408;-79
2023/04/18 07:24:10;;;;;;;;;40.75;29.50;;;;;;;;5017160;28;45603;-79
2023/04/18 07:26:36;;;;;;;;;30.00;20.75;;;;;;;;5017735;28;45534;-79
2023/04/18 07:29:01;;;;;;;;;38.50;23.75;;;;;;;;5017649;28;45482;-79
2023/04/18 07:31:27;;;;;;;;;31.00;22.00;;;;;;;;5017526;28;46045;-80
2023/04/18 07:33:52;;;;;;;;;31.50;23.50;;;;;;;;5017359;28;46538;-80
2023/04/18 07:36:17;;;;;;;;;40.75;23.50;;;;;;;;5017526;28;45440;-81
2023/04/18 07:38:43;;;;;;;;;26.33;19.67;;;;;;;;5017310;28;45408;-81
2023/04/18 07:41:08;;;;;;;;;40.50;27.50;;;;;;;;5017527;28;45293;-82
2023/04/18 07:43:33;;;;;;;;;38.75;28.00;;;;;;;;5017071;28;46769;-81
2023/04/18 07:45:59;;;;;;;;;33.00;24.33;;;;;;;;5017253;28;45567;-81
2023/04/18 07:48:24;;;;;;;;;46.50;26.00;;;;;;;;5017168;28;45465;-79
2023/04/18 07:50:50;;;;;;;;;43.50;32.00;;;;;;;;5017228;28;45297;-82
2023/04/18 07:53:15;;;;;;;;;31.75;25.25;;;;;;;;5016787;28;47239;-81
2023/04/18 07:55:42;;;;;;;;;42.25;30.50;;;;;;;;5017133;28;45431;-81
2023/04/18 07:58:07;;;;;;;;;24.50;19.75;;;;;;;;5017355;28;45343;-81
2023/04/18 08:00:35;;;;;;;;;33.75;25.00;;;;;;;;5017320;28;45502;-81
2023/04/18 08:03:01;;;;;;;;;35.25;27.25;;;;;;;;5016994;28;45219;-81
2023/04/18 08:05:26;;;;;;;;;33.33;25.33;;;;;;;;5006684;28;45373;-80
2023/04/18 08:07:51;;;;;;;;;38.25;27.25;;;;;;;;5000537;28;45372;-81
2023/04/18 08:10:16;;;;;;;;;43.33;27.00;;;;;;;;5003776;28;45656;-81
2023/04/18 08:12:42;;;;;;;;;41.67;31.00;;;;;;;;5004121;28;45596;-81
2023/04/18 08:15:07;;;;;;;;;32.33;28.00;;;;;;;;5001000;28;45714;-81
2023/04/18 08:17:32;;;;;;;;;38.50;27.75;;;;;;;;5010821;28;45874;-80
2023/04/18 08:19:59;;;;;;;;;41.33;30.00;;;;;;;;5008568;28;45540;-80
2023/04/18 08:22:24;;;;;;;;;34.00;24.25;;;;;;;;5006236;28;47183;-78
2023/04/18 08:24:50;;;;;;;;;30.33;24.00;;;;;;;;5014741;28;45369;-80
2023/04/18 08:27:15;;;;;;;;;38.67;33.67;;;;;;;;5014980;28;45627;-79
2023/04/18 08:29:40;;;;;;;;;35.00;26.67;;;;;;;;5015619;28;45673;-79
2023/04/18 08:32:06;;;;;;;;;28.67;22.33;;;;;;;;5014943;28;45554;-79
2023/04/18 08:34:40;;;;;;;;;29.00;24.00;;;;;;;;5014402;28;45585;-79
2023/04/18 08:37:06;;;;;;;;;32.75;25.50;;;;;;;;5014560;28;45542;-80
2023/04/18 08:39:31;;;;;;;;;31.00;29.25;;;;;;;;5020910;28;45391;-79
2023/04/18 08:41:58;;;;;;;;;29.33;20.33;;;;;;;;5011417;28;45580;-80
2023/04/18 08:44:23;;;;;;;;;37.25;27.25;;;;;;;;5011494;28;45539;-80
2023/04/18 08:46:49;;;;;;;;;29.00;21.50;;;;;;;;5011286;28;45485;-79
2023/04/18 08:49:14;;;;;;;;;38.50;28.50;;;;;;;;5014856;28;45360;-78
2023/04/18 08:51:42;;;;;;;;;26.75;20.50;;;;;;;;5006564;28;47786;-79
2023/04/18 08:54:08;;;;;;;;;36.75;23.00;;;;;;;;5011859;28;46027;-79
2023/04/18 08:56:36;;;;;;;;;34.50;27.25;;;;;;;;5018743;28;45759;-78
2023/04/18 08:59:01;;;;;;;;;34.50;22.75;;;;;;;;5023616;28;45420;-79
2023/04/18 09:01:45;;;;;;;;;34.00;23.75;;;;;;;;5009420;28;47228;-77
2023/04/18 09:04:12;;;;;;;;;42.25;24.75;;;;;;;;5012558;28;45312;-78
2023/04/18 09:06:50;;;;;;;;;32.00;20.25;;;;;;;;5014633;28;45832;-78
2023/04/18 09:09:15;;;;;;;;;32.00;26.50;;;;;;;;5014932;28;45519;-77
2023/04/18 09:11:41;;;;;;;;;38.00;26.67;;;;;;;;5014463;28;46388;-78
2023/04/18 09:14:06;;;;;;;;;37.75;27.00;;;;;;;;5012923;28;45920;-78
2023/04/18 09:16:43;;;;;;;;;37.00;25.75;;;;;;;;5007747;28;45446;-77
2023/04/18 09:19:09;;;;;;;;;40.25;27.25;;;;;;;;5030228;28;45426;-77
2023/04/18 09:21:37;;;;;;;;;32.75;25.25;;;;;;;;5013689;28;46371;-77
2023/04/18 09:24:14;;;;;;;;;29.50;23.25;;;;;;;;5014541;28;45984;-79
2023/04/18 09:26:39;;;;;;;;;34.00;26.00;;;;;;;;5015641;28;45428;-79
2023/04/18 09:29:05;;;;;;;;;31.33;24.00;;;;;;;;5015758;28;45398;-80
2023/04/18 09:31:30;;;;;;;;;35.00;25.50;;;;;;;;5015370;28;45457;-79
2023/04/18 09:33:59;;;;;;;;;38.67;27.00;;;;;;;;5015103;28;45403;-78
2023/04/18 09:36:29;;;;;;;;;36.50;24.50;;;;;;;;5015697;28;45351;-78
2023/04/18 09:38:55;;;;;;;;;34.50;23.25;;;;;;;;5015569;28;45406;-78
2023/04/18 09:41:21;;;;;;;;;29.67;26.00;;;;;;;;5015478;28;46291;-78
2023/04/18 09:43:47;;;;;;;;;37.00;25.00;;;;;;;;5015499;28;45262;-78
2023/04/18 09:46:13;;;;;;;;;27.50;24.00;;;;;;;;5015395;28;45495;-81
2023/04/18 09:48:38;;;;;;;;;27.00;19.75;;;;;;;;5015240;28;45355;-81
2023/04/18 09:51:08;;;;;;;;;30.25;20.50;;;;;;;;5015184;28;46848;-78
2023/04/18 09:53:38;;;;;;;;;28.75;22.50;;;;;;;;5009766;28;45853;-78
2023/04/18 09:56:05;;;;;;;;;21.50;18.25;;;;;;;;5015277;28;45280;-78
2023/04/18 09:58:31;;;;;;;;;33.00;24.00;;;;;;;;5015234;28;45687;-79
2023/04/18 10:00:57;;;;;;;;;33.75;20.75;;;;;;;;5015379;28;47396;-78
2023/04/18 10:03:25;;;;;;;;;28.50;23.00;;;;;;;;5014927;28;45882;-78
2023/04/18 10:05:51;;;;;;;;;28.25;25.00;;;;;;;;5015540;28;45348;-78
2023/04/18 10:08:17;;;;;;;;;31.00;27.25;;;;;;;;5015309;28;45273;-78
2023/04/18 10:10:42;;;;;;;;;30.00;21.00;;;;;;;;5004767;28;45613;-78
2023/04/18 10:13:09;;;;;;;;;27.33;17.67;;;;;;;;5014881;28;45221;-77
2023/04/18 10:15:35;;;;;;;;;30.75;22.75;;;;;;;;5015012;28;45401;-78
2023/04/18 10:18:02;;;;;;;;;27.75;19.75;;;;;;;;5018109;28;45427;-78
2023/04/18 10:20:28;;;;;;;;;25.00;22.00;;;;;;;;5004593;28;46452;-79
2023/04/18 10:22:54;;;;;;;;;25.00;19.75;;;;;;;;4998796;28;45420;-78
2023/04/18 10:25:37;;;;;;;;;30.50;24.25;;;;;;;;4998913;28;45428;-77
2023/04/18 10:28:03;;;;;;;;;22.50;17.75;;;;;;;;4998841;28;45333;-77
2023/04/18 10:30:55;;;;;;;;;22.00;20.50;;;;;;;;4998457;28;46246;-79
2023/04/18 10:33:26;;;;;;;;;35.00;22.25;;;;;;;;4997185;28;45808;-79
2023/04/18 10:35:58;;;;;;;;;24.75;20.00;;;;;;;;5013675;28;45293;-78
2023/04/18 10:38:24;;;;;;;;;29.50;19.25;;;;;;;;4998485;28;45404;-78
2023/04/18 10:40:49;;;;;;;;;24.75;17.50;;;;;;;;5005857;28;46856;-79
2023/04/18 10:43:15;;;;;;;;;31.25;23.50;;;;;;;;4996485;28;45526;-80
2023/04/18 10:45:40;;;;;;;;;24.67;17.67;;;;;;;;5012893;28;45591;-78
2023/04/18 10:48:22;;;;;;;;;24.67;16.33;;;;;;;;5017059;28;45535;-79
2023/04/18 10:51:06;;;;;;;;;31.75;20.50;;;;;;;;5017960;28;46158;-80
2023/04/18 10:53:31;;;;;;;;;23.75;20.00;;;;;;;;5030167;28;45902;-78
2023/04/18 10:55:56;;;;;;;;;26.00;19.00;;;;;;;;5038070;28;45336;-78
2023/04/18 10:58:22;;;;;;;;;30.75;18.75;;;;;;;;5038064;28;45465;-77
2023/04/18 11:00:48;;;;;;;;;21.67;18.33;;;;;;;;5037975;28;47288;-78
2023/04/18 11:03:13;;;;;;;;;22.75;18.00;;;;;;;;5018442;28;45472;-78
2023/04/18 11:05:39;;;;;;;;;27.75;17.50;;;;;;;;5009513;28;45626;-78
2023/04/18 11:08:04;;;;;;;;;23.67;18.00;;;;;;;;5018094;28;45471;-78
2023/04/18 11:10:29;;;;;;;;;24.00;17.00;;;;;;;;5005563;28;46470;-79
2023/04/18 11:12:55;;;;;;;;;23.67;17.67;;;;;;;;5011762;28;45451;-78
2023/04/18 11:15:22;;;;;;;;;30.75;21.75;;;;;;;;4997993;28;45504;-79
2023/04/18 11:17:57;;;;;;;;;26.75;21.00;;;;;;;;5016122;28;45660;-81
2023/04/18 11:20:22;;;;;;;;;25.75;19.50;;;;;;;;5037455;28;46517;-80
2023/04/18 11:22:51;;;;;;;;;29.00;15.33;;;;;;;;5015748;28;45215;-80
2023/04/18 11:25:17;;;;;;;;;28.50;20.00;;;;;;;;5002411;28;45510;-78
2023/04/18 11:27:44;;;;;;;;;22.25;20.00;;;;;;;;4997615;28;45363;-79
2023/04/18 11:30:10;;;;;;;;;31.50;20.00;;;;;;;;4998541;28;46321;-78
2023/04/18 11:32:35;;;;;;;;;30.50;21.75;;;;;;;;5000670;28;45662;-78
2023/04/18 11:35:02;;;;;;;;;30.67;22.67;;;;;;;;5005597;28;45490;-77
2023/04/18 11:37:27;;;;;;;;;27.75;17.50;;;;;;;;5015486;28;45535;-78
2023/04/18 11:39:52;;;;;;;;;27.33;18.33;;;;;;;;5017094;28;47257;-77
2023/04/18 11:42:18;;;;;;;;;25.25;20.75;;;;;;;;5017387;28;45408;-79
2023/04/18 11:44:47;;;;;;;;;21.00;18.67;;;;;;;;5015285;28;45447;-79
2023/04/18 11:47:21;;;;;;;;;26.75;17.25;;;;;;;;5009263;28;45294;-79
2023/04/18 11:49:47;;;;;;;;;31.75;17.75;;;;;;;;5004738;28;45365;-79
2023/04/18 11:52:12;;;;;;;;;30.33;20.33;;;;;;;;5009722;28;45699;-80
2023/04/18 11:54:38;;;;;;;;;32.25;22.00;;;;;;;;5014869;28;45413;-80
2023/04/18 11:57:04;;;;;;;;;24.50;20.00;;;;;;;;5017282;28;45498;-81
2023/04/18 11:59:29;;;;;;;;;25.50;15.25;;;;;;;;5012094;28;46223;-80
2023/04/18 12:02:02;;;;;;;;;17.67;14.00;;;;;;;;4997747;28;45463;-81
2023/04/18 12:04:28;;;;;;;;;27.25;17.00;;;;;;;;5002272;28;45464;-79
2023/04/18 12:06:53;;;;;;;;;25.50;16.00;;;;;;;;5002876;28;45403;-80
2023/04/18 12:09:20;;;;;;;;;21.00;14.00;;;;;;;;5002947;28;47265;-81
2023/04/18 12:12:01;;;;;;;;;20.50;15.25;;;;;;;;5009610;28;45698;-80
2023/04/18 12:14:27;;;;;;;;;20.00;15.75;;;;;;;;5015814;28;45357;-81
2023/04/18 12:16:52;;;;;;;;;21.00;15.25;;;;;;;;5013474;28;45558;-81
2023/04/18 12:19:19;;;;;;;;;13.67;11.00;;;;;;;;5013110;28;46623;-81
2023/04/18 12:22:00;;;;;;;;;16.25;14.50;;;;;;;;5016469;28;45853;-80
2023/04/18 12:24:27;;;;;;;;;17.50;11.75;;;;;;;;4998557;28;45574;-79
2023/04/18 12:26:53;;;;;;;;;22.50;14.00;;;;;;;;5013469;28;45380;-80
2023/04/18 12:29:18;;;;;;;;;21.25;17.50;;;;;;;;5019788;28;45347;-80
2023/04/18 12:31:43;;;;;;;;;18.00;14.67;;;;;;;;5015169;28;45535;-81
2023/04/18 12:34:08;;;;;;;;;21.00;15.33;;;;;;;;5016132;28;45269;-81
2023/04/18 12:36:33;;;;;;;;;19.67;13.67;;;;;;;;5014127;28;45534;-82
2023/04/18 12:38:59;;;;;;;;;14.00;12.67;;;;;;;;5015598;28;45569;-81
2023/04/18 12:41:24;;;;;;;;;17.67;14.00;;;;;;;;5015320;28;45527;-82
2023/04/18 12:43:49;;;;;;;;;23.00;17.25;;;;;;;;5015535;28;45379;-82
2023/04/18 12:46:15;;;;;;;;;18.50;14.25;;;;;;;;5013710;28;45453;-82
2023/04/18 12:48:40;;;;;;;;;21.00;14.00;;;;;;;;5015622;28;46285;-81
2023/04/18 12:51:05;;;;;;;;;22.00;15.67;;;;;;;;5015285;28;45290;-81
2023/04/18 12:53:31;;;;;;;;;11.00;8.25;;;;;;;;5014827;28;45523;-81
2023/04/18 12:55:56;;;;;;;;;14.00;13.00;;;;;;;;5015754;28;45359;-81
2023/04/18 12:58:21;;;;;;;;;15.67;14.00;;;;;;;;5010679;28;45426;-84
2023/04/18 13:00:46;;;;;;;;;17.25;14.00;;;;;;;;5015433;28;45355;-81
2023/04/18 13:03:12;;;;;;;;;24.33;14.00;;;;;;;;5015139;28;45526;-82
2023/04/18 13:05:37;;;;;;;;;21.00;15.00;;;;;;;;5014846;28;45439;-81
2023/04/18 13:08:02;;;;;;;;;17.00;14.00;;;;;;;;5014920;28;45580;-82
2023/04/18 13:10:27;;;;;;;;;17.00;13.00;;;;;;;;5013515;28;45471;-81
2023/04/18 13:12:53;;;;;;;;;20.67;15.67;;;;;;;;5007926;28;45436;-81
2023/04/18 13:15:21;;;;;;;;;15.67;10.33;;;;;;;;5011660;28;45205;-80
2023/04/18 13:17:47;;;;;;;;;14.75;13.00;;;;;;;;4998274;28;47212;-82
2023/04/18 13:20:12;;;;;;;;;19.50;14.00;;;;;;;;5013613;28;45479;-81
2023/04/18 13:22:38;;;;;;;;;19.67;16.33;;;;;;;;5015248;28;45301;-82
2023/04/18 13:25:03;;;;;;;;;15.00;10.50;;;;;;;;5014682;28;45534;-81
2023/04/18 13:27:29;;;;;;;;;15.25;12.50;;;;;;;;5014145;28;47303;-82
2023/04/18 13:29:55;;;;;;;;;12.67;10.67;;;;;;;;5015249;28;45527;-82
2023/04/18 13:32:20;;;;;;;;;12.50;11.00;;;;;;;;5014096;28;45554;-81
2023/04/18 13:34:46;;;;;;;;;12.50;9.50;;;;;;;;5014751;28;45379;-81
2023/04/18 13:37:12;;;;;;;;;12.75;8.75;;;;;;;;5014526;28;46120;-82
2023/04/18 13:39:37;;;;;;;;;12.25;9.75;;;;;;;;5013954;28;45336;-81
2023/04/18 13:42:03;;;;;;;;;12.33;10.00;;;;;;;;5011481;28;45456;-83
2023/04/18 13:44:31;;;;;;;;;8.75;7.25;;;;;;;;5013987;28;45494;-81
2023/04/18 13:46:56;;;;;;;;;10.50;8.50;;;;;;;;5012033;28;45487;-81
2023/04/18 13:49:21;;;;;;;;;14.75;9.00;;;;;;;;5014354;28;45372;-80
2023/04/18 13:51:48;;;;;;;;;10.67;9.33;;;;;;;;5017589;28;45324;-82
2023/04/18 13:54:15;;;;;;;;;11.25;10.00;;;;;;;;5020123;28;45420;-81
2023/04/18 13:56:40;;;;;;;;;9.75;7.00;;;;;;;;5019532;28;46293;-81
2023/04/18 13:59:05;;;;;;;;;8.00;6.00;;;;;;;;5012347;28;45387;-80
2023/04/18 14:01:31;;;;;;;;;10.67;7.00;;;;;;;;5017335;28;45297;-81
2023/04/18 14:03:56;;;;;;;;;7.67;7.67;;;;;;;;5020939;28;45816;-82
2023/04/18 14:06:21;;;;;;;;;8.67;5.00;;;;;;;;5020381;28;45487;-82
2023/04/18 14:08:47;;;;;;;;;12.67;7.33;;;;;;;;5020042;28;45495;-82
2023/04/18 14:11:13;;;;;;;;;9.25;6.75;;;;;;;;5022066;28;45261;-81
2023/04/18 14:13:38;;;;;;;;;10.33;7.33;;;;;;;;5021168;28;45289;-82